Ringsted, Iowa
Current Conditions -  °F | °C
As of 2:52 PM on Tuesday 21 Oct 2014 (Local Time) from KEST Reporting Station
Clear Clear  
Wind Chill: 66°   Ceiling: Unl
Heat Index: 66°   Visibility: 10mi
Dew Point: 41°   Wind: 15mph
Humidity: 40%   Direction: 160°SSE
Pressure: 30.08"   Gusts: NA
Location:  43.29°N, 94.51°W
Report Text: KEST 211952Z AUTO 16013KT 10SM CLR 19/05 A3008 RMK AO2 SLP189 T01890050
Loading
Personal Weather Stations






























Interactive Weather Map
Tropical Storm Tracking
New forecast layout! Learn more

10-Day Weather Forecast

Advertisements
Track Severe Weather on mobile